sensor_id;sensor_type;location;lat;lon;timestamp;temperature;humidity
34542;DHT22;20784;51.332;12.410;2022-10-24T00:04:06;15.00;99.90
34542;DHT22;20784;51.332;12.410;2022-10-24T00:07:30;15.00;99.90
34542;DHT22;20784;51.332;12.410;2022-10-24T00:14:07;14.90;99.90
34542;DHT22;20784;51.332;12.410;2022-10-24T00:19:39;14.90;99.90
34542;DHT22;20784;51.332;12.410;2022-10-24T00:24:59;14.90;99.90
34542;DHT22;20784;51.332;12.410;2022-10-24T00:27:57;14.80;99.90
34542;DHT22;20784;51.332;12.410;2022-10-24T00:30:35;14.70;99.90
34542;DHT22;20784;51.332;12.410;2022-10-24T00:33:23;14.80;99.90
34542;DHT22;20784;51.332;12.410;2022-10-24T00:42:36;14.90;99.90
34542;DHT22;20784;51.332;12.410;2022-10-24T00:45:39;15.00;99.90
34542;DHT22;20784;51.332;12.410;2022-10-24T00:51:46;15.10;99.90
34542;DHT22;20784;51.332;12.410;2022-10-24T00:54:34;15.10;99.90
34542;DHT22;20784;51.332;12.410;2022-10-24T01:04:05;15.20;99.90
34542;DHT22;20784;51.332;12.410;2022-10-24T01:07:28;15.10;99.90
34542;DHT22;20784;51.332;12.410;2022-10-24T01:49:37;14.80;99.90
34542;DHT22;20784;51.332;12.410;2022-10-24T02:04:07;15.10;99.90
34542;DHT22;20784;51.332;12.410;2022-10-24T02:10:34;15.00;99.90
34542;DHT22;20784;51.332;12.410;2022-10-24T02:13:54;15.00;99.90
34542;DHT22;20784;51.332;12.410;2022-10-24T02:19:45;14.90;99.90
34542;DHT22;20784;51.332;12.410;2022-10-24T02:32:31;14.90;99.90
34542;DHT22;20784;51.332;12.410;2022-10-24T02:35:50;15.00;99.90
34542;DHT22;20784;51.332;12.410;2022-10-24T02:41:43;15.00;99.90
34542;DHT22;20784;51.332;12.410;2022-10-24T02:48:18;15.00;99.90
34542;DHT22;20784;51.332;12.410;2022-10-24T02:58:27;15.00;99.90
34542;DHT22;20784;51.332;12.410;2022-10-24T03:07:43;15.10;99.90
34542;DHT22;20784;51.332;12.410;2022-10-24T03:17:36;15.20;99.90
34542;DHT22;20784;51.332;12.410;2022-10-24T03:20:45;15.20;99.90
34542;DHT22;20784;51.332;12.410;2022-10-24T03:37:07;15.40;99.90
34542;DHT22;20784;51.332;12.410;2022-10-24T03:43:49;15.50;99.90
34542;DHT22;20784;51.332;12.410;2022-10-24T03:52:42;15.60;99.90
34542;DHT22;20784;51.332;12.410;2022-10-24T03:55:55;15.70;99.90
34542;DHT22;20784;51.332;12.410;2022-10-24T04:02:25;15.80;99.90
34542;DHT22;20784;51.332;12.410;2022-10-24T04:05:28;15.90;99.90
34542;DHT22;20784;51.332;12.410;2022-10-24T04:08:37;15.90;99.90
34542;DHT22;20784;51.332;12.410;2022-10-24T04:11:54;15.90;99.90
34542;DHT22;20784;51.332;12.410;2022-10-24T04:15:08;15.90;99.90
34542;DHT22;20784;51.332;12.410;2022-10-24T04:18:11;16.00;99.90
34542;DHT22;20784;51.332;12.410;2022-10-24T04:21:35;16.00;99.90
34542;DHT22;20784;51.332;12.410;2022-10-24T04:27:39;16.00;99.90
34542;DHT22;20784;51.332;12.410;2022-10-24T04:39:59;16.00;99.90
34542;DHT22;20784;51.332;12.410;2022-10-24T04:42:49;16.00;99.90
34542;DHT22;20784;51.332;12.410;2022-10-24T04:45:38;15.90;99.90
34542;DHT22;20784;51.332;12.410;2022-10-24T04:48:20;16.00;99.90
34542;DHT22;20784;51.332;12.410;2022-10-24T04:54:41;16.00;99.90
34542;DHT22;20784;51.332;12.410;2022-10-24T05:00:39;15.90;99.90
34542;DHT22;20784;51.332;12.410;2022-10-24T05:04:03;15.90;99.90
34542;DHT22;20784;51.332;12.410;2022-10-24T05:06:51;15.90;99.90
34542;DHT22;20784;51.332;12.410;2022-10-24T05:09:34;15.80;99.90
34542;DHT22;20784;51.332;12.410;2022-10-24T05:12:29;15.90;99.90
34542;DHT22;20784;51.332;12.410;2022-10-24T05:19:23;15.90;99.90
34542;DHT22;20784;51.332;12.410;2022-10-24T05:22:45;16.00;99.90
34542;DHT22;20784;51.332;12.410;2022-10-24T05:29:20;15.80;99.90
34542;DHT22;20784;51.332;12.410;2022-10-24T05:38:33;15.80;99.90
34542;DHT22;20784;51.332;12.410;2022-10-24T05:41:11;15.90;99.90
34542;DHT22;20784;51.332;12.410;2022-10-24T05:44:18;15.90;99.90
34542;DHT22;20784;51.332;12.410;2022-10-24T05:46:55;15.80;99.90
34542;DHT22;20784;51.332;12.410;2022-10-24T05:49:24;15.80;99.90
34542;DHT22;20784;51.332;12.410;2022-10-24T05:58:20;15.80;99.90
34542;DHT22;20784;51.332;12.410;2022-10-24T06:00:59;15.90;99.90
34542;DHT22;20784;51.332;12.410;2022-10-24T06:03:36;15.90;99.90
34542;DHT22;20784;51.332;12.410;2022-10-24T06:06:17;15.90;99.90
34542;DHT22;20784;51.332;12.410;2022-10-24T06:08:49;15.90;99.90
34542;DHT22;20784;51.332;12.410;2022-10-24T06:14:25;15.90;99.90
34542;DHT22;20784;51.332;12.410;2022-10-24T06:17:01;16.00;99.90
34542;DHT22;20784;51.332;12.410;2022-10-24T06:19:39;16.00;99.90
34542;DHT22;20784;51.332;12.410;2022-10-24T06:22:38;16.00;99.90
34542;DHT22;20784;51.332;12.410;2022-10-24T06:25:25;16.00;99.90
34542;DHT22;20784;51.332;12.410;2022-10-24T06:28:10;16.00;99.90
34542;DHT22;20784;51.332;12.410;2022-10-24T06:31:04;16.00;99.90
34542;DHT22;20784;51.332;12.410;2022-10-24T06:33:40;16.10;99.90
34542;DHT22;20784;51.332;12.410;2022-10-24T06:36:16;16.10;99.90
34542;DHT22;20784;51.332;12.410;2022-10-24T06:38:51;16.20;99.90
34542;DHT22;20784;51.332;12.410;2022-10-24T06:41:29;16.20;99.90
34542;DHT22;20784;51.332;12.410;2022-10-24T06:43:55;16.20;99.90
34542;DHT22;20784;51.332;12.410;2022-10-24T06:46:22;16.30;99.90
34542;DHT22;20784;51.332;12.410;2022-10-24T06:48:52;16.30;99.90
34542;DHT22;20784;51.332;12.410;2022-10-24T06:51:18;16.30;99.90
34542;DHT22;20784;51.332;12.410;2022-10-24T06:53:46;16.30;99.90
34542;DHT22;20784;51.332;12.410;2022-10-24T06:56:12;16.40;99.90
34542;DHT22;20784;51.332;12.410;2022-10-24T06:58:39;16.40;99.90
34542;DHT22;20784;51.332;12.410;2022-10-24T07:01:17;16.50;99.90
34542;DHT22;20784;51.332;12.410;2022-10-24T07:03:43;16.60;99.90
34542;DHT22;20784;51.332;12.410;2022-10-24T07:06:21;16.70;99.90
34542;DHT22;20784;51.332;12.410;2022-10-24T07:08:48;16.90;99.90
34542;DHT22;20784;51.332;12.410;2022-10-24T07:11:14;17.20;99.90
34542;DHT22;20784;51.332;12.410;2022-10-24T07:13:47;17.40;99.90
34542;DHT22;20784;51.332;12.410;2022-10-24T07:16:13;17.40;99.90
34542;DHT22;20784;51.332;12.410;2022-10-24T07:18:39;17.30;99.90
34542;DHT22;20784;51.332;12.410;2022-10-24T07:21:14;17.30;99.90
34542;DHT22;20784;51.332;12.410;2022-10-24T07:23:40;17.40;99.90
34542;DHT22;20784;51.332;12.410;2022-10-24T07:26:08;17.60;99.90
34542;DHT22;20784;51.332;12.410;2022-10-24T07:28:35;17.80;99.90
34542;DHT22;20784;51.332;12.410;2022-10-24T07:31:02;17.90;99.90
34542;DHT22;20784;51.332;12.410;2022-10-24T07:33:30;17.90;99.90
34542;DHT22;20784;51.332;12.410;2022-10-24T07:35:57;17.70;99.90
34542;DHT22;20784;51.332;12.410;2022-10-24T07:38:23;17.70;99.90
34542;DHT22;20784;51.332;12.410;2022-10-24T07:41:07;17.70;99.90
34542;DHT22;20784;51.332;12.410;2022-10-24T07:43:35;17.70;99.90
34542;DHT22;20784;51.332;12.410;2022-10-24T07:46:08;17.60;99.90
34542;DHT22;20784;51.332;12.410;2022-10-24T07:48:37;17.60;99.90
34542;DHT22;20784;51.332;12.410;2022-10-24T07:51:06;17.60;99.90
34542;DHT22;20784;51.332;12.410;2022-10-24T07:53:32;17.50;99.90
34542;DHT22;20784;51.332;12.410;2022-10-24T07:56:04;17.40;99.90
34542;DHT22;20784;51.332;12.410;2022-10-24T07:58:39;17.30;99.90
34542;DHT22;20784;51.332;12.410;2022-10-24T08:01:24;17.30;99.90
34542;DHT22;20784;51.332;12.410;2022-10-24T08:04:02;17.30;99.90
34542;DHT22;20784;51.332;12.410;2022-10-24T08:06:45;17.30;99.90
34542;DHT22;20784;51.332;12.410;2022-10-24T08:09:14;17.40;99.90
34542;DHT22;20784;51.332;12.410;2022-10-24T08:11:47;17.50;99.90
34542;DHT22;20784;51.332;12.410;2022-10-24T08:14:51;17.40;99.90
34542;DHT22;20784;51.332;12.410;2022-10-24T08:17:30;17.40;99.90
34542;DHT22;20784;51.332;12.410;2022-10-24T08:20:32;17.30;99.90
34542;DHT22;20784;51.332;12.410;2022-10-24T08:23:40;17.30;99.90
34542;DHT22;20784;51.332;12.410;2022-10-24T08:26:28;17.20;99.90
34542;DHT22;20784;51.332;12.410;2022-10-24T08:28:56;17.30;99.90
34542;DHT22;20784;51.332;12.410;2022-10-24T08:31:38;17.40;99.90
34542;DHT22;20784;51.332;12.410;2022-10-24T08:34:24;17.40;99.90
34542;DHT22;20784;51.332;12.410;2022-10-24T08:37:20;17.40;99.90
34542;DHT22;20784;51.332;12.410;2022-10-24T08:40:02;17.50;99.90
34542;DHT22;20784;51.332;12.410;2022-10-24T08:42:41;17.60;99.90
34542;DHT22;20784;51.332;12.410;2022-10-24T08:45:25;17.70;99.90
34542;DHT22;20784;51.332;12.410;2022-10-24T09:04:41;18.50;99.90
34542;DHT22;20784;51.332;12.410;2022-10-24T09:07:46;18.50;99.90
34542;DHT22;20784;51.332;12.410;2022-10-24T09:13:53;18.50;99.90
34542;DHT22;20784;51.332;12.410;2022-10-24T09:16:42;18.30;99.90
34542;DHT22;20784;51.332;12.410;2022-10-24T09:19:19;18.20;99.90
34542;DHT22;20784;51.332;12.410;2022-10-24T09:22:15;18.10;99.90
34542;DHT22;20784;51.332;12.410;2022-10-24T09:24:56;18.20;99.90
34542;DHT22;20784;51.332;12.410;2022-10-24T09:27:43;18.20;99.90
34542;DHT22;20784;51.332;12.410;2022-10-24T09:30:24;18.20;99.90
34542;DHT22;20784;51.332;12.410;2022-10-24T09:43:17;18.10;99.90
34542;DHT22;20784;51.332;12.410;2022-10-24T09:55:14;18.00;99.90
34542;DHT22;20784;51.332;12.410;2022-10-24T09:57:54;18.10;99.90
34542;DHT22;20784;51.332;12.410;2022-10-24T10:00:41;18.00;99.90
34542;DHT22;20784;51.332;12.410;2022-10-24T10:03:18;18.10;99.90
34542;DHT22;20784;51.332;12.410;2022-10-24T10:08:48;18.20;99.90
34542;DHT22;20784;51.332;12.410;2022-10-24T10:11:31;18.20;99.90
34542;DHT22;20784;51.332;12.410;2022-10-24T10:14:24;18.20;99.90
34542;DHT22;20784;51.332;12.410;2022-10-24T10:17:04;18.30;99.90
34542;DHT22;20784;51.332;12.410;2022-10-24T10:19:45;18.30;99.90
34542;DHT22;20784;51.332;12.410;2022-10-24T10:22:31;18.30;99.90
34542;DHT22;20784;51.332;12.410;2022-10-24T10:25:29;18.50;99.90
34542;DHT22;20784;51.332;12.410;2022-10-24T10:28:17;18.40;99.90
34542;DHT22;20784;51.332;12.410;2022-10-24T10:30:52;18.40;99.90
34542;DHT22;20784;51.332;12.410;2022-10-24T10:33:39;18.40;99.90
34542;DHT22;20784;51.332;12.410;2022-10-24T10:36:19;18.40;99.90
34542;DHT22;20784;51.332;12.410;2022-10-24T10:39:13;18.40;99.90
34542;DHT22;20784;51.332;12.410;2022-10-24T10:54:09;18.40;99.90
34542;DHT22;20784;51.332;12.410;2022-10-24T10:59:50;18.60;99.90
34542;DHT22;20784;51.332;12.410;2022-10-24T11:11:05;18.60;99.90
34542;DHT22;20784;51.332;12.410;2022-10-24T11:14:32;18.60;99.90
34542;DHT22;20784;51.332;12.410;2022-10-24T11:16:43;18.50;99.90
34542;DHT22;20784;51.332;12.410;2022-10-24T11:36:05;18.60;99.90
34542;DHT22;20784;51.332;12.410;2022-10-24T11:38:59;18.60;99.90
34542;DHT22;20784;51.332;12.410;2022-10-24T11:42:03;18.60;99.90
34542;DHT22;20784;51.332;12.410;2022-10-24T11:44:44;18.50;99.90
34542;DHT22;20784;51.332;12.410;2022-10-24T11:50:11;18.50;99.90
34542;DHT22;20784;51.332;12.410;2022-10-24T11:52:50;18.50;99.90
34542;DHT22;20784;51.332;12.410;2022-10-24T11:55:35;18.50;99.90
34542;DHT22;20784;51.332;12.410;2022-10-24T11:58:10;18.50;99.90
34542;DHT22;20784;51.332;12.410;2022-10-24T12:00:59;18.50;99.90
34542;DHT22;20784;51.332;12.410;2022-10-24T12:03:52;18.60;99.90
34542;DHT22;20784;51.332;12.410;2022-10-24T12:06:47;18.50;99.90
34542;DHT22;20784;51.332;12.410;2022-10-24T12:15:26;18.50;99.90
34542;DHT22;20784;51.332;12.410;2022-10-24T12:18:00;18.50;99.90
34542;DHT22;20784;51.332;12.410;2022-10-24T12:20:35;18.60;99.90
34542;DHT22;20784;51.332;12.410;2022-10-24T12:23:02;18.70;99.90
34542;DHT22;20784;51.332;12.410;2022-10-24T12:25:36;18.90;99.90
34542;DHT22;20784;51.332;12.410;2022-10-24T12:28:06;18.90;99.90
34542;DHT22;20784;51.332;12.410;2022-10-24T12:30:37;19.00;99.90
34542;DHT22;20784;51.332;12.410;2022-10-24T12:33:11;19.00;99.90
34542;DHT22;20784;51.332;12.410;2022-10-24T12:35:50;19.00;99.90
34542;DHT22;20784;51.332;12.410;2022-10-24T12:40:53;19.10;99.90
34542;DHT22;20784;51.332;12.410;2022-10-24T12:43:41;19.10;99.90
34542;DHT22;20784;51.332;12.410;2022-10-24T12:48:40;19.00;99.90
34542;DHT22;20784;51.332;12.410;2022-10-24T12:51:26;19.00;99.90
34542;DHT22;20784;51.332;12.410;2022-10-24T12:59:51;19.00;99.90
34542;DHT22;20784;51.332;12.410;2022-10-24T13:02:49;19.00;99.90
34542;DHT22;20784;51.332;12.410;2022-10-24T13:08:11;18.90;99.90
34542;DHT22;20784;51.332;12.410;2022-10-24T13:11:09;18.90;99.90
34542;DHT22;20784;51.332;12.410;2022-10-24T13:17:02;18.90;99.90
34542;DHT22;20784;51.332;12.410;2022-10-24T13:19:37;18.90;99.90
34542;DHT22;20784;51.332;12.410;2022-10-24T13:22:28;18.90;99.90
34542;DHT22;20784;51.332;12.410;2022-10-24T13:24:58;18.90;99.90
34542;DHT22;20784;51.332;12.410;2022-10-24T13:27:30;18.90;99.90
34542;DHT22;20784;51.332;12.410;2022-10-24T13:32:32;18.80;99.90
34542;DHT22;20784;51.332;12.410;2022-10-24T13:35:15;18.70;99.90
34542;DHT22;20784;51.332;12.410;2022-10-24T13:37:47;18.70;99.90
34542;DHT22;20784;51.332;12.410;2022-10-24T13:40:31;18.70;99.90
34542;DHT22;20784;51.332;12.410;2022-10-24T13:43:05;18.60;99.90
34542;DHT22;20784;51.332;12.410;2022-10-24T13:45:52;18.60;99.90
34542;DHT22;20784;51.332;12.410;2022-10-24T13:48:22;18.60;99.90
34542;DHT22;20784;51.332;12.410;2022-10-24T13:51:04;18.60;99.90
34542;DHT22;20784;51.332;12.410;2022-10-24T13:53:34;18.60;99.90
34542;DHT22;20784;51.332;12.410;2022-10-24T13:56:10;18.60;99.90
34542;DHT22;20784;51.332;12.410;2022-10-24T13:58:39;18.50;99.90
34542;DHT22;20784;51.332;12.410;2022-10-24T14:01:16;18.60;99.90
34542;DHT22;20784;51.332;12.410;2022-10-24T14:03:44;18.50;99.90
34542;DHT22;20784;51.332;12.410;2022-10-24T14:06:11;18.40;99.90
34542;DHT22;20784;51.332;12.410;2022-10-24T14:08:42;18.40;99.90
34542;DHT22;20784;51.332;12.410;2022-10-24T14:11:15;18.40;99.90
34542;DHT22;20784;51.332;12.410;2022-10-24T14:13:46;18.40;99.90
34542;DHT22;20784;51.332;12.410;2022-10-24T14:16:12;18.40;99.90
34542;DHT22;20784;51.332;12.410;2022-10-24T14:18:43;18.30;99.90
34542;DHT22;20784;51.332;12.410;2022-10-24T14:21:22;18.30;99.90
34542;DHT22;20784;51.332;12.410;2022-10-24T14:23:58;18.40;99.90
34542;DHT22;20784;51.332;12.410;2022-10-24T14:26:28;18.30;99.90
34542;DHT22;20784;51.332;12.410;2022-10-24T14:28:57;18.40;99.90
34542;DHT22;20784;51.332;12.410;2022-10-24T14:31:33;18.30;99.90
34542;DHT22;20784;51.332;12.410;2022-10-24T14:34:13;18.30;99.90
34542;DHT22;20784;51.332;12.410;2022-10-24T14:36:52;18.30;99.90
34542;DHT22;20784;51.332;12.410;2022-10-24T14:39:22;18.30;99.90
34542;DHT22;20784;51.332;12.410;2022-10-24T14:41:51;18.30;99.90
34542;DHT22;20784;51.332;12.410;2022-10-24T14:44:18;18.20;99.90
34542;DHT22;20784;51.332;12.410;2022-10-24T14:46:46;18.20;99.90
34542;DHT22;20784;51.332;12.410;2022-10-24T14:49:37;18.20;99.90
34542;DHT22;20784;51.332;12.410;2022-10-24T14:52:27;18.20;99.90
34542;DHT22;20784;51.332;12.410;2022-10-24T14:55:20;18.30;99.90
34542;DHT22;20784;51.332;12.410;2022-10-24T14:57:50;18.10;99.90
34542;DHT22;20784;51.332;12.410;2022-10-24T15:00:45;18.10;99.90
34542;DHT22;20784;51.332;12.410;2022-10-24T15:03:28;18.10;99.90
34542;DHT22;20784;51.332;12.410;2022-10-24T15:06:15;18.10;99.90
34542;DHT22;20784;51.332;12.410;2022-10-24T15:09:05;18.00;99.90
34542;DHT22;20784;51.332;12.410;2022-10-24T15:11:39;18.00;99.90
34542;DHT22;20784;51.332;12.410;2022-10-24T15:17:24;18.10;99.90
34542;DHT22;20784;51.332;12.410;2022-10-24T15:19:57;18.00;99.90
34542;DHT22;20784;51.332;12.410;2022-10-24T15:24:53;18.00;99.90
34542;DHT22;20784;51.332;12.410;2022-10-24T15:27:40;18.00;99.90
34542;DHT22;20784;51.332;12.410;2022-10-24T15:30:14;17.90;99.90
34542;DHT22;20784;51.332;12.410;2022-10-24T15:32:46;17.90;99.90
34542;DHT22;20784;51.332;12.410;2022-10-24T15:35:16;17.80;99.90
34542;DHT22;20784;51.332;12.410;2022-10-24T15:37:57;17.90;99.90
34542;DHT22;20784;51.332;12.410;2022-10-24T15:40:32;17.80;99.90
34542;DHT22;20784;51.332;12.410;2022-10-24T15:43:01;17.80;99.90
34542;DHT22;20784;51.332;12.410;2022-10-24T15:45:27;17.80;99.90
34542;DHT22;20784;51.332;12.410;2022-10-24T15:47:53;17.80;99.90
34542;DHT22;20784;51.332;12.410;2022-10-24T15:50:22;17.80;99.90
34542;DHT22;20784;51.332;12.410;2022-10-24T15:52:54;17.70;99.90
34542;DHT22;20784;51.332;12.410;2022-10-24T15:55:23;17.70;99.90
34542;DHT22;20784;51.332;12.410;2022-10-24T15:57:53;17.60;99.90
34542;DHT22;20784;51.332;12.410;2022-10-24T16:00:28;17.70;99.90
34542;DHT22;20784;51.332;12.410;2022-10-24T16:06:36;17.90;99.90
34542;DHT22;20784;51.332;12.410;2022-10-24T16:09:02;18.00;99.90
34542;DHT22;20784;51.332;12.410;2022-10-24T16:11:28;18.00;99.90
34542;DHT22;20784;51.332;12.410;2022-10-24T16:13:56;18.00;99.90
34542;DHT22;20784;51.332;12.410;2022-10-24T16:16:22;18.10;99.90
34542;DHT22;20784;51.332;12.410;2022-10-24T16:18:48;18.30;99.90
34542;DHT22;20784;51.332;12.410;2022-10-24T16:21:17;18.50;99.90
34542;DHT22;20784;51.332;12.410;2022-10-24T16:23:44;18.30;99.90
34542;DHT22;20784;51.332;12.410;2022-10-24T16:26:10;18.10;99.90
34542;DHT22;20784;51.332;12.410;2022-10-24T16:28:36;17.90;99.90
34542;DHT22;20784;51.332;12.410;2022-10-24T16:31:03;17.80;99.90
34542;DHT22;20784;51.332;12.410;2022-10-24T16:33:29;17.70;99.90
34542;DHT22;20784;51.332;12.410;2022-10-24T16:35:55;17.60;99.90
34542;DHT22;20784;51.332;12.410;2022-10-24T16:38:27;17.60;99.90
34542;DHT22;20784;51.332;12.410;2022-10-24T16:40:55;17.50;99.90
34542;DHT22;20784;51.332;12.410;2022-10-24T16:43:31;17.50;99.90
34542;DHT22;20784;51.332;12.410;2022-10-24T16:45:59;17.40;99.90
34542;DHT22;20784;51.332;12.410;2022-10-24T16:48:26;17.50;99.90
34542;DHT22;20784;51.332;12.410;2022-10-24T16:50:52;17.50;99.90
34542;DHT22;20784;51.332;12.410;2022-10-24T16:53:18;17.40;99.90
34542;DHT22;20784;51.332;12.410;2022-10-24T16:55:54;17.40;99.90
34542;DHT22;20784;51.332;12.410;2022-10-24T16:58:21;17.30;99.90
34542;DHT22;20784;51.332;12.410;2022-10-24T17:00:47;17.30;99.90
34542;DHT22;20784;51.332;12.410;2022-10-24T17:03:13;17.30;99.90
34542;DHT22;20784;51.332;12.410;2022-10-24T17:05:39;17.20;99.90
34542;DHT22;20784;51.332;12.410;2022-10-24T17:08:04;17.10;99.90
34542;DHT22;20784;51.332;12.410;2022-10-24T17:10:30;17.10;99.90
34542;DHT22;20784;51.332;12.410;2022-10-24T17:12:58;17.10;99.90
34542;DHT22;20784;51.332;12.410;2022-10-24T17:15:26;17.10;99.90
34542;DHT22;20784;51.332;12.410;2022-10-24T17:17:51;17.00;99.90
34542;DHT22;20784;51.332;12.410;2022-10-24T17:20:17;17.00;99.90
34542;DHT22;20784;51.332;12.410;2022-10-24T17:22:44;17.00;99.90
34542;DHT22;20784;51.332;12.410;2022-10-24T17:25:19;17.00;99.90
34542;DHT22;20784;51.332;12.410;2022-10-24T17:27:46;17.00;99.90
34542;DHT22;20784;51.332;12.410;2022-10-24T17:30:18;17.00;99.90
34542;DHT22;20784;51.332;12.410;2022-10-24T17:32:44;17.00;99.90
34542;DHT22;20784;51.332;12.410;2022-10-24T17:35:13;17.00;99.90
34542;DHT22;20784;51.332;12.410;2022-10-24T17:40:12;16.90;99.90
34542;DHT22;20784;51.332;12.410;2022-10-24T17:42:38;16.90;99.90
34542;DHT22;20784;51.332;12.410;2022-10-24T17:45:08;16.90;99.90
34542;DHT22;20784;51.332;12.410;2022-10-24T17:47:34;16.90;99.90
34542;DHT22;20784;51.332;12.410;2022-10-24T17:49:59;16.80;99.90
34542;DHT22;20784;51.332;12.410;2022-10-24T17:52:25;16.80;99.90
34542;DHT22;20784;51.332;12.410;2022-10-24T17:54:51;16.80;99.90
34542;DHT22;20784;51.332;12.410;2022-10-24T17:57:16;16.70;99.90
34542;DHT22;20784;51.332;12.410;2022-10-24T17:59:42;16.80;99.90
34542;DHT22;20784;51.332;12.410;2022-10-24T18:02:12;16.80;99.90
34542;DHT22;20784;51.332;12.410;2022-10-24T18:04:38;16.80;99.90
34542;DHT22;20784;51.332;12.410;2022-10-24T18:07:06;16.70;99.90
34542;DHT22;20784;51.332;12.410;2022-10-24T18:09:32;16.70;99.90
34542;DHT22;20784;51.332;12.410;2022-10-24T18:12:01;16.60;99.90
34542;DHT22;20784;51.332;12.410;2022-10-24T18:14:27;16.60;99.90
34542;DHT22;20784;51.332;12.410;2022-10-24T18:16:53;16.60;99.90
34542;DHT22;20784;51.332;12.410;2022-10-24T18:19:19;16.60;99.90
34542;DHT22;20784;51.332;12.410;2022-10-24T18:21:44;16.60;99.90
34542;DHT22;20784;51.332;12.410;2022-10-24T18:24:10;16.50;99.90
34542;DHT22;20784;51.332;12.410;2022-10-24T18:26:36;16.50;99.90
34542;DHT22;20784;51.332;12.410;2022-10-24T18:29:04;16.60;99.90
34542;DHT22;20784;51.332;12.410;2022-10-24T18:31:30;16.50;99.90
34542;DHT22;20784;51.332;12.410;2022-10-24T18:34:00;16.60;99.90
34542;DHT22;20784;51.332;12.410;2022-10-24T18:36:29;16.50;99.90
34542;DHT22;20784;51.332;12.410;2022-10-24T18:38:56;16.40;99.90
34542;DHT22;20784;51.332;12.410;2022-10-24T18:44:27;16.50;99.90
34542;DHT22;20784;51.332;12.410;2022-10-24T18:46:58;16.40;99.90
34542;DHT22;20784;51.332;12.410;2022-10-24T18:49:26;16.40;99.90
34542;DHT22;20784;51.332;12.410;2022-10-24T18:54:23;16.40;99.90
34542;DHT22;20784;51.332;12.410;2022-10-24T18:56:51;16.40;99.90
34542;DHT22;20784;51.332;12.410;2022-10-24T18:59:20;16.30;99.90
34542;DHT22;20784;51.332;12.410;2022-10-24T19:02:16;16.30;99.90
34542;DHT22;20784;51.332;12.410;2022-10-24T19:04:46;16.40;99.90
34542;DHT22;20784;51.332;12.410;2022-10-24T19:07:16;16.30;99.90
34542;DHT22;20784;51.332;12.410;2022-10-24T19:09:43;16.30;99.90
34542;DHT22;20784;51.332;12.410;2022-10-24T19:12:09;16.30;99.90
34542;DHT22;20784;51.332;12.410;2022-10-24T19:14:38;16.30;99.90
34542;DHT22;20784;51.332;12.410;2022-10-24T19:17:12;16.30;99.90
34542;DHT22;20784;51.332;12.410;2022-10-24T19:19:41;16.30;99.90
34542;DHT22;20784;51.332;12.410;2022-10-24T19:22:07;16.30;99.90
34542;DHT22;20784;51.332;12.410;2022-10-24T19:24:33;16.30;99.90
34542;DHT22;20784;51.332;12.410;2022-10-24T19:26:59;16.40;99.90
34542;DHT22;20784;51.332;12.410;2022-10-24T19:29:25;16.30;99.90
34542;DHT22;20784;51.332;12.410;2022-10-24T19:31:50;16.40;99.90
34542;DHT22;20784;51.332;12.410;2022-10-24T19:34:16;16.40;99.90
34542;DHT22;20784;51.332;12.410;2022-10-24T19:36:41;16.40;99.90
34542;DHT22;20784;51.332;12.410;2022-10-24T19:39:07;16.40;99.90
34542;DHT22;20784;51.332;12.410;2022-10-24T19:41:34;16.40;99.90
34542;DHT22;20784;51.332;12.410;2022-10-24T19:44:01;16.40;99.90
34542;DHT22;20784;51.332;12.410;2022-10-24T19:46:27;16.40;99.90
34542;DHT22;20784;51.332;12.410;2022-10-24T19:48:52;16.40;99.90
34542;DHT22;20784;51.332;12.410;2022-10-24T19:51:19;16.40;99.90
34542;DHT22;20784;51.332;12.410;2022-10-24T19:53:46;16.40;99.90
34542;DHT22;20784;51.332;12.410;2022-10-24T19:56:20;16.40;99.90
34542;DHT22;20784;51.332;12.410;2022-10-24T19:58:48;16.40;99.90
34542;DHT22;20784;51.332;12.410;2022-10-24T20:01:16;16.40;99.90
34542;DHT22;20784;51.332;12.410;2022-10-24T20:03:46;16.50;99.90
34542;DHT22;20784;51.332;12.410;2022-10-24T20:06:12;16.40;99.90
34542;DHT22;20784;51.332;12.410;2022-10-24T20:08:38;16.40;99.90
34542;DHT22;20784;51.332;12.410;2022-10-24T20:11:04;16.40;99.90
34542;DHT22;20784;51.332;12.410;2022-10-24T20:13:31;16.40;99.90
34542;DHT22;20784;51.332;12.410;2022-10-24T20:15:59;16.30;99.90
34542;DHT22;20784;51.332;12.410;2022-10-24T20:18:26;16.30;99.90
34542;DHT22;20784;51.332;12.410;2022-10-24T20:20:54;16.40;99.90
34542;DHT22;20784;51.332;12.410;2022-10-24T20:23:21;16.30;99.90
34542;DHT22;20784;51.332;12.410;2022-10-24T20:25:49;16.30;99.90
34542;DHT22;20784;51.332;12.410;2022-10-24T20:28:15;16.20;99.90
34542;DHT22;20784;51.332;12.410;2022-10-24T20:30:43;16.20;99.90
34542;DHT22;20784;51.332;12.410;2022-10-24T20:33:09;16.20;99.90
34542;DHT22;20784;51.332;12.410;2022-10-24T20:35:35;16.30;99.90
34542;DHT22;20784;51.332;12.410;2022-10-24T20:38:01;16.10;99.90
34542;DHT22;20784;51.332;12.410;2022-10-24T20:40:27;16.20;99.90
34542;DHT22;20784;51.332;12.410;2022-10-24T20:42:53;16.20;99.90
34542;DHT22;20784;51.332;12.410;2022-10-24T20:45:18;16.10;99.90
34542;DHT22;20784;51.332;12.410;2022-10-24T20:47:44;16.10;99.90
34542;DHT22;20784;51.332;12.410;2022-10-24T20:50:10;16.00;99.90
34542;DHT22;20784;51.332;12.410;2022-10-24T20:52:39;16.00;99.90
34542;DHT22;20784;51.332;12.410;2022-10-24T20:55:04;16.00;99.90
34542;DHT22;20784;51.332;12.410;2022-10-24T20:57:30;16.00;99.90
34542;DHT22;20784;51.332;12.410;2022-10-24T21:00:00;16.00;99.90
34542;DHT22;20784;51.332;12.410;2022-10-24T21:02:28;16.00;99.90
34542;DHT22;20784;51.332;12.410;2022-10-24T21:04:54;15.90;99.90
34542;DHT22;20784;51.332;12.410;2022-10-24T21:07:19;15.90;99.90
34542;DHT22;20784;51.332;12.410;2022-10-24T21:09:45;15.90;99.90
34542;DHT22;20784;51.332;12.410;2022-10-24T21:12:17;15.90;99.90
34542;DHT22;20784;51.332;12.410;2022-10-24T21:14:43;15.90;99.90
34542;DHT22;20784;51.332;12.410;2022-10-24T21:17:08;15.90;99.90
34542;DHT22;20784;51.332;12.410;2022-10-24T21:19:56;15.80;99.90
34542;DHT22;20784;51.332;12.410;2022-10-24T21:22:22;15.80;99.90
34542;DHT22;20784;51.332;12.410;2022-10-24T21:24:47;15.80;99.90
34542;DHT22;20784;51.332;12.410;2022-10-24T21:27:13;15.80;99.90
34542;DHT22;20784;51.332;12.410;2022-10-24T21:29:38;15.90;99.90
34542;DHT22;20784;51.332;12.410;2022-10-24T21:32:04;15.80;99.90
34542;DHT22;20784;51.332;12.410;2022-10-24T21:34:30;15.80;99.90
34542;DHT22;20784;51.332;12.410;2022-10-24T21:36:55;15.80;99.90